Time;durP1;ratioP1;P1;durP2;ratioP2;P2;SDS_P1;SDS_P2;PMS_P1;PMS_P2;Temp;Humidity;BMP_temperature;BMP_pressure;BME280_temperature;BME280_humidity;BME280_pressure;Samples;Min_cycle;Max_cycle;Signal;HPM_P1;HPM_P2
2021/03/20 00:00:30;;;;;;;24.75;18.42;;;;;;;4.35;63.02;102267.63;352227;28;1247;-64
2021/03/20 00:00:47;;;;;;;26.33;18.77;;;;;;;4.40;63.09;102259.81;349804;28;70975;-65
2021/03/20 00:01:03;;;;;;;23.85;18.83;;;;;;;4.44;62.74;102258.94;349751;28;72000;-65
2021/03/20 00:01:23;;;;;;;22.85;18.88;;;;;;;4.44;63.82;102274.63;350499;27;70285;-64
2021/03/20 00:01:36;;;;;;;23.83;18.52;;;;;;;4.45;63.59;102268.53;349756;28;69006;-64
2021/03/20 00:01:49;;;;;;;24.60;18.72;;;;;;;4.36;63.71;102260.66;352019;28;1260;-65
2021/03/20 00:02:00;;;;;;;24.20;19.15;;;;;;;4.40;62.35;102263.28;350765;28;1292;-65
2021/03/20 00:02:11;;;;;;;23.85;19.00;;;;;;;4.38;62.92;102269.38;350809;28;1074;-64
2021/03/20 00:02:23;;;;;;;25.02;18.65;;;;;;;4.29;63.16;102271.97;349387;28;1090;-65
2021/03/20 00:02:35;;;;;;;24.88;17.83;;;;;;;4.21;63.21;102272.81;349398;28;1097;-66
2021/03/20 00:02:46;;;;;;;24.13;17.63;;;;;;;4.25;63.14;102273.69;349316;28;1057;-63
2021/03/20 00:02:58;;;;;;;25.10;17.92;;;;;;;4.32;62.88;102269.38;349437;28;1163;-64
2021/03/20 00:03:09;;;;;;;26.34;18.66;;;;;;;4.37;63.75;102265.91;349279;28;1079;-72
2021/03/20 00:03:29;;;;;;;25.88;18.70;;;;;;;4.37;62.34;102272.88;349446;28;1034;-64
2021/03/20 00:03:40;;;;;;;23.85;19.00;;;;;;;4.39;62.72;102266.75;348263;28;71670;-64
2021/03/20 00:03:52;;;;;;;25.33;19.63;;;;;;;4.37;63.22;102265.03;350809;28;1059;-65
2021/03/20 00:04:04;;;;;;;25.40;19.77;;;;;;;4.38;63.52;102272.88;350752;28;1240;-66
2021/03/20 00:04:16;;;;;;;25.13;19.60;;;;;;;4.33;64.02;102266.75;349557;28;2058;-67
2021/03/20 00:04:28;;;;;;;24.30;19.13;;;;;;;4.33;63.26;102271.13;349413;28;2004;-67
2021/03/20 00:04:39;;;;;;;25.48;19.20;;;;;;;4.33;63.73;102268.50;349312;28;1233;-67
2021/03/20 00:04:50;;;;;;;25.73;19.20;;;;;;;4.39;63.96;102271.13;347957;28;1046;-64
2021/03/20 00:05:01;;;;;;;24.38;19.05;;;;;;;4.37;63.42;102262.41;347948;28;1157;-65
2021/03/20 00:05:13;;;;;;;25.15;18.95;;;;;;;4.42;63.21;102268.50;347970;28;1154;-65
2021/03/20 00:05:24;;;;;;;23.70;18.95;;;;;;;4.39;64.36;102276.34;348047;28;1279;-64
2021/03/20 00:05:36;;;;;;;25.77;19.42;;;;;;;4.44;64.68;102269.41;347804;28;1281;-64
2021/03/20 00:05:47;;;;;;;26.40;19.70;;;;;;;4.41;62.77;102269.41;348063;28;1065;-66
2021/03/20 00:05:58;;;;;;;25.80;19.67;;;;;;;4.40;62.98;102272.88;348063;28;1179;-64
2021/03/20 00:06:28;;;;;;;23.25;19.55;;;;;;;4.42;63.98;102276.34;347503;28;71944;-65
2021/03/20 00:06:43;;;;;;;24.20;19.23;;;;;;;4.33;62.77;102274.59;348334;28;72280;-67
2021/03/20 00:06:56;;;;;;;26.55;18.88;;;;;;;4.22;63.14;102274.56;350594;28;48851;-64
2021/03/20 00:07:07;;;;;;;27.70;18.58;;;;;;;4.18;63.02;102269.31;352169;28;1147;-62
2021/03/20 00:07:18;;;;;;;27.98;18.65;;;;;;;4.19;63.06;102279.78;352456;27;1212;-63
2021/03/20 00:07:29;;;;;;;27.70;18.98;;;;;;;4.25;64.00;102273.69;353592;27;1075;-67
2021/03/20 00:07:41;;;;;;;29.02;19.50;;;;;;;4.27;63.48;102271.94;353561;27;1172;-64
2021/03/20 00:07:54;;;;;;;27.30;19.00;;;;;;;4.31;63.49;102278.94;352233;28;1112;-65
2021/03/20 00:08:08;;;;;;;24.92;18.50;;;;;;;4.29;63.28;102274.59;351377;28;25034;-63
2021/03/20 00:08:24;;;;;;;26.20;18.65;;;;;;;4.31;63.06;102275.47;351281;28;24024;-63
2021/03/20 00:08:36;;;;;;;25.25;19.45;;;;;;;4.35;64.42;102274.59;349821;28;70663;-67
2021/03/20 00:08:49;;;;;;;26.38;19.40;;;;;;;4.35;63.55;102265.00;352187;28;1299;-66
2021/03/20 00:09:03;;;;;;;26.38;18.98;;;;;;;4.43;64.45;102270.25;352180;28;1297;-63
2021/03/20 00:09:20;;;;;;;25.50;19.27;;;;;;;4.48;64.56;102271.16;350537;28;48697;-65
2021/03/20 00:09:32;;;;;;;24.38;19.00;;;;;;;4.47;62.80;102271.16;349769;28;70937;-65
2021/03/20 00:09:43;;;;;;;24.75;18.75;;;;;;;4.43;64.00;102272.88;352227;28;1135;-64
2021/03/20 00:09:54;;;;;;;27.63;19.23;;;;;;;4.38;63.67;102274.59;353764;28;1212;-62
2021/03/20 00:10:07;;;;;;;27.73;19.13;;;;;;;4.37;63.59;102271.13;353564;27;1134;-64
2021/03/20 00:10:20;;;;;;;24.90;19.08;;;;;;;4.36;64.08;102273.75;353651;27;1220;-63
2021/03/20 00:10:31;;;;;;;24.92;19.13;;;;;;;4.37;63.69;102273.75;353570;27;2175;-63
2021/03/20 00:10:44;;;;;;;26.35;19.38;;;;;;;4.36;64.03;102273.75;353573;27;1094;-64
2021/03/20 00:10:55;;;;;;;26.52;19.30;;;;;;;4.33;63.60;102276.34;353611;27;1127;-62
2021/03/20 00:11:07;;;;;;;25.23;19.45;;;;;;;4.33;63.36;102278.97;353477;27;1058;-62
2021/03/20 00:11:19;;;;;;;24.25;19.27;;;;;;;4.31;63.67;102272.84;353591;28;1907;-64
2021/03/20 00:11:31;;;;;;;24.95;19.40;;;;;;;4.28;62.92;102271.09;353591;27;1369;-63
2021/03/20 00:11:44;;;;;;;25.42;19.67;;;;;;;4.29;64.10;102274.59;353577;27;1248;-63
2021/03/20 00:11:58;;;;;;;26.35;20.33;;;;;;;4.29;64.46;102269.38;353400;27;1296;-63
2021/03/20 00:12:09;;;;;;;26.15;20.42;;;;;;;4.33;63.57;102271.97;352633;28;23579;-64
2021/03/20 00:12:20;;;;;;;24.63;19.92;;;;;;;4.37;64.03;102270.25;352185;28;1184;-64
2021/03/20 00:12:32;;;;;;;25.85;19.65;;;;;;;4.39;64.16;102271.13;350788;28;1081;-64
2021/03/20 00:12:44;;;;;;;24.65;19.38;;;;;;;4.41;63.50;102272.03;350771;28;1158;-65
2021/03/20 00:12:56;;;;;;;26.02;19.65;;;;;;;4.46;64.82;102270.28;350712;28;1004;-64
2021/03/20 00:13:07;;;;;;;27.05;19.60;;;;;;;4.47;64.47;102273.78;350684;28;1061;-65
2021/03/20 00:13:20;;;;;;;27.35;19.63;;;;;;;4.42;64.74;102276.34;350852;28;1180;-64
2021/03/20 00:13:32;;;;;;;26.52;20.10;;;;;;;4.43;63.80;102278.13;349950;28;24925;-63
2021/03/20 00:13:43;;;;;;;27.13;20.48;;;;;;;4.42;63.73;102271.13;350728;28;1085;-64
2021/03/20 00:13:57;;;;;;;27.27;20.40;;;;;;;4.39;63.40;102264.13;350750;28;1220;-64
2021/03/20 00:14:12;;;;;;;28.08;20.55;;;;;;;4.34;62.81;102267.63;349990;28;25401;-65
2021/03/20 00:14:27;;;;;;;27.16;20.14;;;;;;;4.23;63.46;102267.56;351372;28;25094;-63
2021/03/20 00:14:39;;;;;;;25.52;19.42;;;;;;;4.27;63.37;102271.09;352113;28;49598;-63
2021/03/20 00:14:50;;;;;;;25.45;19.05;;;;;;;4.34;63.45;102262.38;353576;27;1080;-63
2021/03/20 00:15:02;;;;;;;26.30;19.23;;;;;;;4.36;63.55;102273.75;353626;28;1079;-65
2021/03/20 00:15:15;;;;;;;26.77;19.83;;;;;;;4.39;63.67;102265.91;353679;27;1126;-66
2021/03/20 00:15:27;;;;;;;26.55;20.13;;;;;;;4.36;62.50;102271.97;353722;28;1105;-65
2021/03/20 00:15:38;;;;;;;27.20;20.70;;;;;;;4.29;62.95;102269.38;353708;27;1223;-63
2021/03/20 00:15:53;;;;;;;26.02;19.77;;;;;;;4.33;63.83;102265.88;353550;27;1083;-64
2021/03/20 00:16:04;;;;;;;24.08;19.20;;;;;;;4.32;64.12;102265.00;352783;28;25147;-63
2021/03/20 00:16:16;;;;;;;25.63;19.15;;;;;;;4.34;64.16;102267.63;353637;27;1107;-63
2021/03/20 00:16:28;;;;;;;26.73;19.40;;;;;;;4.28;64.18;102267.59;353586;27;1188;-64
2021/03/20 00:16:40;;;;;;;26.73;19.02;;;;;;;4.33;63.80;102271.97;353573;27;1076;-65
2021/03/20 00:16:52;;;;;;;26.88;19.10;;;;;;;4.33;64.36;102268.50;353576;27;1105;-65
2021/03/20 00:17:04;;;;;;;28.88;19.75;;;;;;;4.36;63.96;102271.97;353635;27;1100;-63
2021/03/20 00:17:15;;;;;;;28.23;20.20;;;;;;;4.28;63.46;102268.47;353630;28;1136;-66
2021/03/20 00:17:27;;;;;;;26.65;19.60;;;;;;;4.36;64.64;102271.13;353636;28;1094;-65
2021/03/20 00:17:39;;;;;;;25.70;19.50;;;;;;;4.39;64.02;102265.91;353382;28;1105;-63
2021/03/20 00:17:50;;;;;;;26.92;19.75;;;;;;;4.40;64.63;102270.25;353517;27;1037;-64
2021/03/20 00:18:02;;;;;;;26.83;19.50;;;;;;;4.44;63.62;102274.63;353715;28;1110;-64
2021/03/20 00:18:14;;;;;;;24.85;19.23;;;;;;;4.45;63.04;102271.16;353686;27;1212;-64
2021/03/20 00:18:26;;;;;;;24.45;19.02;;;;;;;4.43;63.90;102272.88;353652;27;1092;-64
2021/03/20 00:18:39;;;;;;;26.00;19.48;;;;;;;4.44;64.38;102268.50;353438;27;2565;-64
2021/03/20 00:18:51;;;;;;;25.73;19.30;;;;;;;4.41;63.99;102269.41;353627;27;1137;-63
2021/03/20 00:19:02;;;;;;;26.63;19.40;;;;;;;4.39;64.37;102269.38;353727;27;1129;-65
2021/03/20 00:19:14;;;;;;;27.40;19.40;;;;;;;4.36;63.97;102271.13;353693;28;1162;-63
2021/03/20 00:19:25;;;;;;;28.28;19.56;;;;;;;4.35;63.89;102267.63;353594;27;1216;-64
2021/03/20 00:19:36;;;;;;;26.35;20.00;;;;;;;4.33;63.45;102271.13;353679;27;1120;-65
2021/03/20 00:19:47;;;;;;;24.55;20.10;;;;;;;4.32;63.93;102259.75;352128;28;1168;-64
2021/03/20 00:19:59;;;;;;;24.15;20.10;;;;;;;4.33;63.06;102264.13;352183;28;2191;-63
2021/03/20 00:20:13;;;;;;;23.42;20.13;;;;;;;4.36;65.08;102264.13;352206;28;1057;-63
2021/03/20 00:20:31;;;;;;;24.25;19.95;;;;;;;4.32;63.85;102253.69;351249;28;23866;-63
2021/03/20 00:20:43;;;;;;;25.27;19.40;;;;;;;4.39;64.47;102263.28;349701;28;71248;-64
2021/03/20 00:20:55;;;;;;;26.17;19.45;;;;;;;4.39;64.14;102265.91;352156;28;1124;-64
2021/03/20 00:21:07;;;;;;;25.67;19.88;;;;;;;4.33;64.21;102268.50;352240;28;1041;-64
2021/03/20 00:21:19;;;;;;;25.73;19.92;;;;;;;4.37;63.14;102267.66;352037;28;1451;-64
2021/03/20 00:21:30;;;;;;;25.38;20.20;;;;;;;4.40;64.89;102262.41;352153;28;1121;-64
2021/03/20 00:21:42;;;;;;;25.77;20.15;;;;;;;4.43;63.23;102265.03;352538;27;1092;-65
2021/03/20 00:21:53;;;;;;;25.02;20.08;;;;;;;4.43;64.05;102267.66;353587;27;1085;-64
2021/03/20 00:22:04;;;;;;;24.08;19.98;;;;;;;4.44;63.90;102264.19;353597;27;2113;-64
2021/03/20 00:22:15;;;;;;;26.83;20.48;;;;;;;4.44;64.67;102266.78;353548;28;1073;-63
2021/03/20 00:22:26;;;;;;;27.26;20.78;;;;;;;4.44;64.87;102258.94;353471;27;1212;-64
2021/03/20 00:22:38;;;;;;;28.50;20.27;;;;;;;4.38;64.44;102265.03;353568;27;1208;-64
2021/03/20 00:22:50;;;;;;;27.02;19.63;;;;;;;4.38;64.49;102266.75;353582;27;1084;-64
2021/03/20 00:23:01;;;;;;;25.75;19.27;;;;;;;4.30;63.22;102256.28;353482;27;1060;-63
2021/03/20 00:23:13;;;;;;;23.55;19.30;;;;;;;4.33;64.91;102266.75;353435;28;1119;-65
2021/03/20 00:23:25;;;;;;;23.83;19.45;;;;;;;4.29;63.58;102266.75;353620;27;1204;-64
2021/03/20 00:23:36;;;;;;;24.27;19.73;;;;;;;4.31;64.45;102267.59;353702;27;1139;-63
2021/03/20 00:23:48;;;;;;;25.58;19.58;;;;;;;4.33;63.09;102266.75;353733;27;2133;-64
2021/03/20 00:23:59;;;;;;;27.35;19.85;;;;;;;4.33;64.55;102258.03;353659;27;1144;-63
2021/03/20 00:24:10;;;;;;;27.75;19.95;;;;;;;4.30;63.17;102263.25;353632;27;1250;-63
2021/03/20 00:24:21;;;;;;;25.88;19.90;;;;;;;4.32;65.18;102266.75;353590;27;1227;-64
2021/03/20 00:24:32;;;;;;;24.80;19.45;;;;;;;4.28;64.97;102265.00;353709;27;1100;-64
2021/03/20 00:24:44;;;;;;;24.83;19.00;;;;;;;4.31;64.53;102267.59;353632;27;1144;-63
2021/03/20 00:24:55;;;;;;;27.02;18.85;;;;;;;4.36;65.29;102265.91;353509;27;1218;-64
2021/03/20 00:25:07;;;;;;;28.10;18.98;;;;;;;4.29;63.72;102261.53;353483;28;1148;-64
2021/03/20 00:25:19;;;;;;;27.88;19.52;;;;;;;4.32;64.43;102267.63;353588;27;1065;-64
2021/03/20 00:25:30;;;;;;;27.30;19.67;;;;;;;4.29;64.38;102261.53;353594;27;1096;-64
2021/03/20 00:25:42;;;;;;;27.02;19.35;;;;;;;4.29;63.57;102258.91;353458;27;1156;-64
2021/03/20 00:25:53;;;;;;;28.42;19.67;;;;;;;4.27;63.39;102255.38;353613;28;1059;-64
2021/03/20 00:26:05;;;;;;;26.73;19.50;;;;;;;4.31;63.84;102267.59;353371;27;1246;-64
2021/03/20 00:26:17;;;;;;;26.25;19.33;;;;;;;4.28;64.69;102251.91;353588;27;1124;-64
2021/03/20 00:26:28;;;;;;;27.52;19.23;;;;;;;4.35;64.55;102261.53;353654;27;1117;-64
2021/03/20 00:26:39;;;;;;;28.92;19.65;;;;;;;4.36;64.84;102256.28;353599;27;1359;-64
2021/03/20 00:26:51;;;;;;;29.58;19.75;;;;;;;4.38;64.48;102258.91;352162;28;1117;-64
2021/03/20 00:27:02;;;;;;;26.10;19.50;;;;;;;4.35;63.36;102259.75;352057;28;1207;-65
2021/03/20 00:27:13;;;;;;;23.88;19.15;;;;;;;4.31;63.18;102262.38;352170;28;1136;-64
2021/03/20 00:27:25;;;;;;;23.58;19.10;;;;;;;4.32;65.17;102256.28;350803;28;1209;-64
2021/03/20 00:27:36;;;;;;;24.86;19.16;;;;;;;4.34;64.76;102257.16;350791;28;1231;-64
2021/03/20 00:27:47;;;;;;;26.50;19.67;;;;;;;4.33;64.05;102258.03;350784;28;1231;-64
2021/03/20 00:28:00;;;;;;;26.45;19.58;;;;;;;4.34;64.16;102258.03;350583;28;1120;-64
2021/03/20 00:28:21;;;;;;;24.88;19.56;;;;;;;4.35;63.73;102261.53;350754;28;1228;-67
2021/03/20 00:28:33;;;;;;;23.50;19.05;;;;;;;4.39;64.47;102263.28;348390;28;70787;-63
2021/03/20 00:28:44;;;;;;;23.00;18.50;;;;;;;4.29;64.08;102261.53;350775;28;1081;-64
2021/03/20 00:28:56;;;;;;;24.25;18.60;;;;;;;4.18;63.88;102259.72;350611;28;1094;-64
2021/03/20 00:29:08;;;;;;;25.90;19.08;;;;;;;4.18;64.98;102256.25;350716;28;1191;-63
2021/03/20 00:29:19;;;;;;;26.35;19.25;;;;;;;4.21;64.82;102259.72;351390;28;1078;-65
2021/03/20 00:29:31;;;;;;;24.66;19.22;;;;;;;4.29;65.27;102258.91;352162;28;1015;-65
2021/03/20 00:29:42;;;;;;;24.23;19.25;;;;;;;4.32;65.07;102259.75;352737;28;1181;-64
2021/03/20 00:29:53;;;;;;;25.13;19.42;;;;;;;4.27;64.53;102260.63;353656;27;1159;-64
2021/03/20 00:30:06;;;;;;;27.38;19.67;;;;;;;4.15;64.83;102243.13;353612;28;1108;-64
2021/03/20 00:30:19;;;;;;;28.98;19.98;;;;;;;4.27;64.38;102251.03;352912;27;23775;-63
2021/03/20 00:30:31;;;;;;;26.05;19.48;;;;;;;4.20;64.78;102260.63;353699;27;1064;-63
2021/03/20 00:30:42;;;;;;;23.90;19.30;;;;;;;4.12;63.80;102258.81;352101;28;1079;-64
2021/03/20 00:30:57;;;;;;;24.17;19.35;;;;;;;4.16;65.07;102258.84;352151;28;1069;-64
2021/03/20 00:31:11;;;;;;;24.88;19.45;;;;;;;4.16;64.18;102260.56;350576;28;48390;-65
2021/03/20 00:31:23;;;;;;;25.25;19.88;;;;;;;4.13;64.94;102257.97;350497;28;47278;-65
2021/03/20 00:31:35;;;;;;;26.40;19.77;;;;;;;4.13;64.94;102261.44;352122;28;1140;-64
2021/03/20 00:31:46;;;;;;;26.17;19.27;;;;;;;4.07;63.92;102253.59;352061;28;1184;-66
2021/03/20 00:31:58;;;;;;;25.88;19.48;;;;;;;4.11;63.78;102250.09;352217;28;1084;-66
2021/03/20 00:32:10;;;;;;;26.50;19.52;;;;;;;4.18;65.47;102261.47;351515;28;1674;-64
2021/03/20 00:32:21;;;;;;;26.28;19.86;;;;;;;4.18;64.25;102262.34;352126;28;1209;-64
2021/03/20 00:32:32;;;;;;;25.75;19.85;;;;;;;4.19;65.47;102264.09;352071;28;1045;-63
2021/03/20 00:32:45;;;;;;;25.38;20.17;;;;;;;4.26;64.43;102254.53;352169;28;1204;-64
2021/03/20 00:32:57;;;;;;;26.08;19.73;;;;;;;4.32;64.85;102258.91;352147;28;1273;-64
2021/03/20 00:33:08;;;;;;;26.92;19.90;;;;;;;4.32;64.08;102253.69;353424;27;1097;-64
2021/03/20 00:33:19;;;;;;;26.25;19.83;;;;;;;4.28;63.95;102254.53;353718;27;1179;-64
2021/03/20 00:33:31;;;;;;;25.48;20.02;;;;;;;4.29;64.25;102253.66;353558;27;1033;-67
2021/03/20 00:33:44;;;;;;;25.00;20.20;;;;;;;4.32;65.26;102264.13;353662;28;1072;-64
2021/03/20 00:33:55;;;;;;;25.38;20.10;;;;;;;4.31;65.31;102259.75;353637;28;1224;-64
2021/03/20 00:34:06;;;;;;;25.73;19.98;;;;;;;4.33;64.09;102263.28;353692;28;1138;-64
2021/03/20 00:34:17;;;;;;;25.88;20.08;;;;;;;4.32;65.47;102261.53;353707;28;1087;-65
2021/03/20 00:34:28;;;;;;;26.00;20.30;;;;;;;4.33;65.41;102256.28;352076;28;1133;-68
2021/03/20 00:34:39;;;;;;;27.02;20.35;;;;;;;4.23;63.94;102247.53;352216;28;1204;-65
2021/03/20 00:34:51;;;;;;;28.13;20.48;;;;;;;4.19;64.29;102245.78;352028;28;1906;-66
2021/03/20 00:35:04;;;;;;;26.67;20.10;;;;;;;4.27;64.94;102247.53;352130;28;1112;-64
2021/03/20 00:35:17;;;;;;;27.02;19.42;;;;;;;4.25;64.35;102251.03;352015;28;1149;-67
2021/03/20 00:35:29;;;;;;;28.36;19.30;;;;;;;4.26;65.00;102259.75;352049;28;1141;-68
2021/03/20 00:35:40;;;;;;;25.25;18.88;;;;;;;4.15;63.71;102253.59;352072;28;1072;-67
2021/03/20 00:35:52;;;;;;;24.23;18.65;;;;;;;4.16;63.84;102258.84;352010;28;1555;-66
2021/03/20 00:36:04;;;;;;;23.13;18.85;;;;;;;4.14;63.75;102252.72;352155;28;1064;-67
2021/03/20 00:36:17;;;;;;;23.60;19.02;;;;;;;4.15;63.71;102256.22;352135;28;2009;-69
2021/03/20 00:36:45;;;;;;;26.80;20.33;;;;;;;4.16;63.79;102260.56;350262;28;70211;-69
2021/03/20 00:36:56;;;;;;;26.17;20.70;;;;;;;4.21;64.83;102258.88;353711;28;1327;-69
2021/03/20 00:37:08;;;;;;;26.58;20.45;;;;;;;4.22;64.89;102264.09;353639;28;1098;-65
2021/03/20 00:37:19;;;;;;;26.75;20.35;;;;;;;4.31;65.48;102267.59;353608;27;1192;-69
2021/03/20 00:37:31;;;;;;;26.27;20.08;;;;;;;4.32;65.80;102264.13;353631;27;1218;-70
2021/03/20 00:37:42;;;;;;;28.60;20.50;;;;;;;4.32;65.19;102258.91;353675;27;1140;-68
2021/03/20 00:37:54;;;;;;;30.30;21.08;;;;;;;4.34;64.52;102262.38;353616;28;1200;-63
2021/03/20 00:38:05;;;;;;;27.95;20.30;;;;;;;4.32;65.21;102261.53;353636;27;1144;-63
2021/03/20 00:38:18;;;;;;;27.75;20.33;;;;;;;4.24;64.33;102258.88;353617;28;1196;-67
2021/03/20 00:38:30;;;;;;;29.73;20.80;;;;;;;4.17;63.66;102260.56;353756;28;886;-65
2021/03/20 00:38:42;;;;;;;29.23;20.48;;;;;;;4.17;64.90;102265.81;353730;28;1072;-64
2021/03/20 00:38:53;;;;;;;27.67;20.02;;;;;;;4.18;63.78;102266.69;353695;28;1076;-66
2021/03/20 00:39:06;;;;;;;26.60;19.85;;;;;;;4.22;64.47;102264.09;353695;28;1194;-70
2021/03/20 00:39:17;;;;;;;28.23;20.20;;;;;;;4.24;63.85;102261.47;353570;28;2149;-69
2021/03/20 00:39:28;;;;;;;29.02;21.13;;;;;;;4.25;64.35;102261.47;353660;27;1320;-65
2021/03/20 00:39:41;;;;;;;29.42;21.85;;;;;;;4.25;65.62;102263.25;353807;28;894;-65
2021/03/20 00:39:52;;;;;;;28.88;21.73;;;;;;;4.24;64.27;102262.38;353668;28;1125;-67
2021/03/20 00:40:07;;;;;;;29.67;21.48;;;;;;;4.25;63.89;102263.25;352056;28;2110;-68
2021/03/20 00:40:23;;;;;;;29.30;22.05;;;;;;;4.33;65.71;102263.28;349122;28;49119;-65
2021/03/20 00:40:34;;;;;;;27.60;21.70;;;;;;;4.31;64.75;102262.38;348228;28;70786;-67
2021/03/20 00:40:46;;;;;;;26.80;21.13;;;;;;;4.25;63.97;102258.00;350753;28;1065;-70
2021/03/20 00:40:58;;;;;;;25.35;20.23;;;;;;;4.25;64.68;102260.63;350642;28;1185;-67
2021/03/20 00:41:10;;;;;;;27.70;21.23;;;;;;;4.25;64.52;102264.09;350778;28;1357;-68
2021/03/20 00:41:21;;;;;;;29.68;22.30;;;;;;;4.31;64.25;102265.84;349138;28;1449;-64
2021/03/20 00:41:37;;;;;;;29.17;21.88;;;;;;;4.35;63.83;102258.91;349342;28;1081;-66
2021/03/20 00:41:48;;;;;;;28.38;20.90;;;;;;;4.36;64.87;102258.91;347775;28;49006;-67
2021/03/20 00:41:59;;;;;;;30.45;20.83;;;;;;;4.31;63.76;102263.25;349915;28;2045;-68
2021/03/20 00:42:11;;;;;;;29.25;20.23;;;;;;;4.30;65.23;102263.25;350861;28;1021;-66
2021/03/20 00:42:22;;;;;;;27.13;20.20;;;;;;;4.33;64.24;102258.03;352126;28;1211;-64
2021/03/20 00:42:33;;;;;;;27.27;20.38;;;;;;;4.33;65.02;102261.53;350815;28;1029;-65
2021/03/20 00:42:45;;;;;;;26.60;20.38;;;;;;;4.33;64.15;102256.28;350806;28;1036;-65
2021/03/20 00:42:57;;;;;;;26.85;20.65;;;;;;;4.38;64.54;102261.53;350726;28;1022;-67
2021/03/20 00:43:08;;;;;;;26.15;20.75;;;;;;;4.36;65.85;102261.53;350814;28;764;-67
2021/03/20 00:43:19;;;;;;;27.73;21.02;;;;;;;4.39;64.85;102258.91;351625;28;1147;-65
2021/03/20 00:43:31;;;;;;;29.00;21.05;;;;;;;4.39;65.30;102265.91;352152;28;1001;-65
2021/03/20 00:43:42;;;;;;;28.33;21.23;;;;;;;4.35;65.02;102265.00;352155;28;1164;-68
2021/03/20 00:43:53;;;;;;;28.63;21.40;;;;;;;4.35;65.17;102261.53;352101;28;1235;-64
2021/03/20 00:44:05;;;;;;;28.60;21.33;;;;;;;4.38;64.00;102264.13;352051;28;1192;-67
2021/03/20 00:44:16;;;;;;;27.75;21.25;;;;;;;4.32;64.83;102266.75;352126;28;1139;-64
2021/03/20 00:44:27;;;;;;;28.05;21.05;;;;;;;4.36;65.31;102269.38;352478;28;1518;-68
2021/03/20 00:44:39;;;;;;;29.58;21.10;;;;;;;4.37;64.41;102267.66;353573;28;1056;-66
2021/03/20 00:44:50;;;;;;;31.02;21.05;;;;;;;4.34;64.63;102262.38;353719;28;1060;-66
2021/03/20 00:45:02;;;;;;;27.58;20.70;;;;;;;4.29;64.58;102256.28;353567;28;1183;-67
2021/03/20 00:45:15;;;;;;;25.90;20.33;;;;;;;4.34;63.81;102263.28;352200;28;1196;-64
2021/03/20 00:45:27;;;;;;;25.52;20.60;;;;;;;4.30;64.77;102276.31;352135;28;1212;-66
2021/03/20 00:45:39;;;;;;;27.13;21.00;;;;;;;4.33;65.62;102266.75;351915;28;1149;-69
2021/03/20 00:45:51;;;;;;;27.50;21.40;;;;;;;4.28;64.75;102257.16;352122;28;1069;-66
2021/03/20 00:46:05;;;;;;;27.63;21.65;;;;;;;4.32;63.45;102270.22;352180;28;1179;-67
2021/03/20 00:46:16;;;;;;;27.05;21.13;;;;;;;4.32;64.53;102261.53;351304;28;24039;-67
2021/03/20 00:46:28;;;;;;;26.63;20.73;;;;;;;4.30;65.40;102261.53;352164;28;1094;-65
2021/03/20 00:46:39;;;;;;;27.58;20.85;;;;;;;4.22;63.74;102264.09;351906;28;1157;-69
2021/03/20 00:46:51;;;;;;;26.50;20.90;;;;;;;4.24;65.46;102257.16;352176;28;1103;-66
2021/03/20 00:47:03;;;;;;;27.98;21.42;;;;;;;4.19;63.73;102261.47;350767;28;1159;-65
2021/03/20 00:47:15;;;;;;;28.63;21.65;;;;;;;4.21;63.82;102270.19;352095;28;1405;-66
2021/03/20 00:47:26;;;;;;;30.25;21.77;;;;;;;4.19;64.29;102263.19;352066;28;1058;-65
2021/03/20 00:47:38;;;;;;;30.75;21.85;;;;;;;4.16;64.57;102266.69;350700;28;1115;-67
2021/03/20 00:47:49;;;;;;;30.42;21.52;;;;;;;4.18;65.63;102262.34;350765;28;1184;-67
2021/03/20 00:48:16;;;;;;;28.65;21.17;;;;;;;4.15;63.95;102267.56;350799;28;1183;-64
2021/03/20 00:48:31;;;;;;;28.58;21.10;;;;;;;4.16;65.78;102273.66;348265;28;71489;-65
2021/03/20 00:48:42;;;;;;;30.30;21.08;;;;;;;4.21;65.05;102262.34;349933;28;24016;-70
2021/03/20 00:48:53;;;;;;;29.45;21.30;;;;;;;4.25;65.03;102266.72;350776;28;1226;-66
2021/03/20 00:49:05;;;;;;;26.92;20.88;;;;;;;4.24;64.75;102267.59;352182;28;1119;-64
2021/03/20 00:49:16;;;;;;;24.77;20.38;;;;;;;4.24;65.66;102270.22;352251;28;1097;-68
2021/03/20 00:49:27;;;;;;;26.58;20.42;;;;;;;4.25;64.10;102266.72;352004;28;1248;-69
2021/03/20 00:49:38;;;;;;;27.55;20.65;;;;;;;4.29;64.46;102269.38;353542;28;1176;-65
2021/03/20 00:49:49;;;;;;;28.30;21.08;;;;;;;4.28;64.57;102268.47;353709;28;1111;-64
2021/03/20 00:50:01;;;;;;;28.14;21.30;;;;;;;4.31;64.43;102267.59;353586;28;1155;-67
2021/03/20 00:50:14;;;;;;;29.02;21.60;;;;;;;4.22;64.88;102269.31;353649;28;1124;-67
2021/03/20 00:50:25;;;;;;;27.73;21.23;;;;;;;4.19;64.38;102271.03;353610;28;1092;-66
2021/03/20 00:50:37;;;;;;;26.28;20.70;;;;;;;4.16;65.19;102264.09;353688;28;1088;-68
2021/03/20 00:50:48;;;;;;;25.83;20.75;;;;;;;4.22;65.17;102264.09;353602;28;1054;-64
2021/03/20 00:51:02;;;;;;;25.70;21.17;;;;;;;4.22;64.68;102269.31;353703;28;1258;-65
2021/03/20 00:51:13;;;;;;;26.58;21.15;;;;;;;4.27;64.55;102264.09;352803;28;23813;-67
2021/03/20 00:51:24;;;;;;;27.20;21.02;;;;;;;4.27;65.02;102263.25;353535;28;1191;-66
2021/03/20 00:51:36;;;;;;;27.55;20.77;;;;;;;4.30;65.49;102268.47;353616;28;1199;-66
2021/03/20 00:51:48;;;;;;;26.44;20.26;;;;;;;4.25;64.82;102261.47;353654;28;1133;-69
2021/03/20 00:51:59;;;;;;;24.70;20.23;;;;;;;4.20;64.69;102255.38;352166;28;1239;-67
2021/03/20 00:52:10;;;;;;;25.23;20.38;;;;;;;4.28;65.96;102265.00;352046;28;1139;-69
2021/03/20 00:52:21;;;;;;;25.52;20.67;;;;;;;4.29;65.84;102264.13;352112;28;1239;-66
2021/03/20 00:52:32;;;;;;;25.98;20.45;;;;;;;4.21;64.66;102262.34;352169;28;1081;-64
2021/03/20 00:52:43;;;;;;;26.40;19.83;;;;;;;4.20;64.22;102268.47;352225;28;1073;-67
2021/03/20 00:52:54;;;;;;;27.35;19.73;;;;;;;4.18;65.11;102264.09;352109;28;1084;-65
2021/03/20 00:53:05;;;;;;;27.85;19.75;;;;;;;4.16;64.11;102265.81;352167;28;1093;-64
2021/03/20 00:53:18;;;;;;;28.63;20.02;;;;;;;4.14;63.74;102257.09;352181;28;1017;-67
2021/03/20 00:53:29;;;;;;;28.70;20.27;;;;;;;4.18;65.19;102264.09;352108;28;1090;-70
2021/03/20 00:53:40;;;;;;;27.25;21.02;;;;;;;4.19;64.52;102263.19;352110;28;1053;-68
2021/03/20 00:53:52;;;;;;;25.98;20.60;;;;;;;4.21;64.75;102267.56;352209;28;1092;-65
2021/03/20 00:54:03;;;;;;;27.15;20.67;;;;;;;4.23;65.48;102268.47;352045;28;1192;-65
2021/03/20 00:54:14;;;;;;;28.65;20.70;;;;;;;4.24;65.98;102266.72;350764;28;1099;-68
2021/03/20 00:54:25;;;;;;;29.08;20.65;;;;;;;4.19;64.69;102268.44;350695;28;1160;-67
2021/03/20 00:54:36;;;;;;;28.02;19.92;;;;;;;4.16;65.15;102266.69;350736;28;1130;-69
2021/03/20 00:54:47;;;;;;;26.40;19.50;;;;;;;4.23;64.97;102265.84;350699;28;1145;-64
2021/03/20 00:54:59;;;;;;;25.10;19.75;;;;;;;4.23;64.36;102270.19;350608;28;1069;-65
2021/03/20 00:55:11;;;;;;;24.85;20.17;;;;;;;4.28;64.78;102272.84;350634;28;2043;-65
2021/03/20 00:55:23;;;;;;;26.48;20.08;;;;;;;4.24;65.37;102266.72;351030;28;1049;-67
2021/03/20 00:55:34;;;;;;;26.35;19.55;;;;;;;4.21;65.19;102264.09;352178;28;1243;-66
2021/03/20 00:55:45;;;;;;;25.80;19.38;;;;;;;4.21;65.12;102266.72;352200;28;2058;-64
2021/03/20 00:55:58;;;;;;;25.60;19.25;;;;;;;4.14;65.55;102267.56;350625;28;1061;-65
2021/03/20 00:56:09;;;;;;;25.73;19.55;;;;;;;4.17;64.46;102268.44;351265;28;1365;-71
2021/03/20 00:56:21;;;;;;;28.80;19.85;;;;;;;4.18;64.97;102271.94;352127;28;1078;-70
2021/03/20 00:56:32;;;;;;;29.75;19.83;;;;;;;4.18;65.62;102272.78;352114;28;1061;-65
2021/03/20 00:56:44;;;;;;;29.30;19.77;;;;;;;4.21;65.10;102267.56;352052;28;1080;-67
2021/03/20 00:56:55;;;;;;;28.27;20.23;;;;;;;4.18;65.20;102264.09;351973;28;997;-67
2021/03/20 00:57:06;;;;;;;28.40;20.13;;;;;;;4.16;65.17;102263.19;352183;28;1084;-68
2021/03/20 00:57:17;;;;;;;28.52;20.48;;;;;;;4.17;65.31;102271.03;352125;28;1133;-70
2021/03/20 00:57:28;;;;;;;29.20;20.27;;;;;;;4.17;64.28;102265.81;352099;28;1077;-65